sensor_id;sensor_type;location;lat;lon;timestamp;temperature;humidity
20610;DHT22;10463;52.378;9.688;2022-07-23T00:02:25;27.10;33.60
20610;DHT22;10463;52.378;9.688;2022-07-23T00:05:11;27.10;33.60
20610;DHT22;10463;52.378;9.688;2022-07-23T00:07:56;27.10;33.60
20610;DHT22;10463;52.378;9.688;2022-07-23T00:10:41;27.10;33.60
20610;DHT22;10463;52.378;9.688;2022-07-23T00:13:25;27.20;33.60
20610;DHT22;10463;52.378;9.688;2022-07-23T00:16:10;27.20;33.70
20610;DHT22;10463;52.378;9.688;2022-07-23T00:18:57;27.20;33.60
20610;DHT22;10463;52.378;9.688;2022-07-23T00:21:41;27.20;33.60
20610;DHT22;10463;52.378;9.688;2022-07-23T00:24:26;27.20;33.50
20610;DHT22;10463;52.378;9.688;2022-07-23T00:27:10;27.30;33.60
20610;DHT22;10463;52.378;9.688;2022-07-23T00:29:55;27.30;33.60
20610;DHT22;10463;52.378;9.688;2022-07-23T00:32:48;27.30;33.50
20610;DHT22;10463;52.378;9.688;2022-07-23T00:35:37;27.40;33.50
20610;DHT22;10463;52.378;9.688;2022-07-23T00:38:25;27.30;33.30
20610;DHT22;10463;52.378;9.688;2022-07-23T00:41:09;27.30;33.30
20610;DHT22;10463;52.378;9.688;2022-07-23T00:43:54;27.40;33.40
20610;DHT22;10463;52.378;9.688;2022-07-23T00:46:51;27.30;33.40
20610;DHT22;10463;52.378;9.688;2022-07-23T00:49:38;27.30;33.40
20610;DHT22;10463;52.378;9.688;2022-07-23T00:52:24;27.40;33.40
20610;DHT22;10463;52.378;9.688;2022-07-23T00:55:10;27.40;33.40
20610;DHT22;10463;52.378;9.688;2022-07-23T00:57:55;27.40;33.40
20610;DHT22;10463;52.378;9.688;2022-07-23T01:00:43;27.40;33.20
20610;DHT22;10463;52.378;9.688;2022-07-23T01:03:28;27.40;33.10
20610;DHT22;10463;52.378;9.688;2022-07-23T01:06:13;27.30;33.10
20610;DHT22;10463;52.378;9.688;2022-07-23T01:08:59;27.30;33.10
20610;DHT22;10463;52.378;9.688;2022-07-23T01:11:45;27.30;33.10
20610;DHT22;10463;52.378;9.688;2022-07-23T01:14:30;27.30;33.20
20610;DHT22;10463;52.378;9.688;2022-07-23T01:17:15;27.30;33.20
20610;DHT22;10463;52.378;9.688;2022-07-23T01:19:59;27.20;33.10
20610;DHT22;10463;52.378;9.688;2022-07-23T01:22:46;27.20;33.10
20610;DHT22;10463;52.378;9.688;2022-07-23T01:25:31;27.20;33.10
20610;DHT22;10463;52.378;9.688;2022-07-23T01:28:20;27.20;33.90
20610;DHT22;10463;52.378;9.688;2022-07-23T01:31:05;27.20;33.20
20610;DHT22;10463;52.378;9.688;2022-07-23T01:33:53;27.20;33.20
20610;DHT22;10463;52.378;9.688;2022-07-23T01:36:38;27.20;33.20
20610;DHT22;10463;52.378;9.688;2022-07-23T01:39:25;27.20;33.20
20610;DHT22;10463;52.378;9.688;2022-07-23T01:42:11;27.20;33.10
20610;DHT22;10463;52.378;9.688;2022-07-23T01:44:55;27.20;33.10
20610;DHT22;10463;52.378;9.688;2022-07-23T01:47:41;27.20;33.00
20610;DHT22;10463;52.378;9.688;2022-07-23T01:50:26;27.20;33.10
20610;DHT22;10463;52.378;9.688;2022-07-23T01:53:46;27.10;33.10
20610;DHT22;10463;52.378;9.688;2022-07-23T01:56:32;27.10;33.10
20610;DHT22;10463;52.378;9.688;2022-07-23T01:59:17;27.10;33.10
20610;DHT22;10463;52.378;9.688;2022-07-23T02:02:02;27.20;33.20
20610;DHT22;10463;52.378;9.688;2022-07-23T02:04:50;27.10;33.10
20610;DHT22;10463;52.378;9.688;2022-07-23T02:07:37;27.10;33.00
20610;DHT22;10463;52.378;9.688;2022-07-23T02:10:22;27.10;33.70
20610;DHT22;10463;52.378;9.688;2022-07-23T02:13:08;27.00;32.80
20610;DHT22;10463;52.378;9.688;2022-07-23T02:15:53;27.00;32.70
20610;DHT22;10463;52.378;9.688;2022-07-23T02:18:38;27.00;32.80
20610;DHT22;10463;52.378;9.688;2022-07-23T02:21:23;26.90;32.80
20610;DHT22;10463;52.378;9.688;2022-07-23T02:24:08;26.80;32.80
20610;DHT22;10463;52.378;9.688;2022-07-23T02:26:53;26.80;33.00
20610;DHT22;10463;52.378;9.688;2022-07-23T02:29:39;26.80;33.00
20610;DHT22;10463;52.378;9.688;2022-07-23T02:32:24;26.80;33.10
20610;DHT22;10463;52.378;9.688;2022-07-23T02:35:09;26.70;33.00
20610;DHT22;10463;52.378;9.688;2022-07-23T02:37:55;26.70;33.00
20610;DHT22;10463;52.378;9.688;2022-07-23T02:40:40;26.60;33.00
20610;DHT22;10463;52.378;9.688;2022-07-23T02:43:25;26.50;33.00
20610;DHT22;10463;52.378;9.688;2022-07-23T02:46:11;26.40;33.00
20610;DHT22;10463;52.378;9.688;2022-07-23T02:48:56;26.40;33.20
20610;DHT22;10463;52.378;9.688;2022-07-23T02:51:41;26.30;33.30
20610;DHT22;10463;52.378;9.688;2022-07-23T02:54:26;26.20;33.20
20610;DHT22;10463;52.378;9.688;2022-07-23T02:57:12;26.20;33.30
20610;DHT22;10463;52.378;9.688;2022-07-23T02:59:57;26.10;33.40
20610;DHT22;10463;52.378;9.688;2022-07-23T03:02:43;26.10;33.60
20610;DHT22;10463;52.378;9.688;2022-07-23T03:05:28;26.00;33.70
20610;DHT22;10463;52.378;9.688;2022-07-23T03:08:13;26.00;33.80
20610;DHT22;10463;52.378;9.688;2022-07-23T03:11:00;26.00;33.90
20610;DHT22;10463;52.378;9.688;2022-07-23T03:13:45;26.00;33.90
20610;DHT22;10463;52.378;9.688;2022-07-23T03:16:30;26.10;34.00
20610;DHT22;10463;52.378;9.688;2022-07-23T03:19:17;26.00;33.90
20610;DHT22;10463;52.378;9.688;2022-07-23T03:22:02;26.10;34.00
20610;DHT22;10463;52.378;9.688;2022-07-23T03:24:48;26.10;34.00
20610;DHT22;10463;52.378;9.688;2022-07-23T03:27:42;26.10;34.10
20610;DHT22;10463;52.378;9.688;2022-07-23T03:30:27;26.10;34.10
20610;DHT22;10463;52.378;9.688;2022-07-23T03:33:13;26.20;34.10
20610;DHT22;10463;52.378;9.688;2022-07-23T03:35:59;26.20;34.10
20610;DHT22;10463;52.378;9.688;2022-07-23T03:38:46;26.20;34.10
20610;DHT22;10463;52.378;9.688;2022-07-23T03:41:32;26.30;34.10
20610;DHT22;10463;52.378;9.688;2022-07-23T03:44:17;26.30;34.10
20610;DHT22;10463;52.378;9.688;2022-07-23T03:47:02;26.30;34.00
20610;DHT22;10463;52.378;9.688;2022-07-23T03:49:48;26.40;34.10
20610;DHT22;10463;52.378;9.688;2022-07-23T03:52:34;26.40;34.00
20610;DHT22;10463;52.378;9.688;2022-07-23T03:55:18;26.30;33.90
20610;DHT22;10463;52.378;9.688;2022-07-23T03:58:03;26.30;33.90
20610;DHT22;10463;52.378;9.688;2022-07-23T04:00:49;26.30;33.90
20610;DHT22;10463;52.378;9.688;2022-07-23T04:03:34;26.20;33.90
20610;DHT22;10463;52.378;9.688;2022-07-23T04:06:19;26.10;34.00
20610;DHT22;10463;52.378;9.688;2022-07-23T04:09:06;26.00;34.10
20610;DHT22;10463;52.378;9.688;2022-07-23T04:11:51;26.00;34.30
20610;DHT22;10463;52.378;9.688;2022-07-23T04:14:37;26.00;34.40
20610;DHT22;10463;52.378;9.688;2022-07-23T04:17:22;26.00;34.40
20610;DHT22;10463;52.378;9.688;2022-07-23T04:20:08;26.00;34.60
20610;DHT22;10463;52.378;9.688;2022-07-23T04:23:01;26.00;34.60
20610;DHT22;10463;52.378;9.688;2022-07-23T04:25:47;26.00;34.60
20610;DHT22;10463;52.378;9.688;2022-07-23T04:28:32;26.00;34.70
20610;DHT22;10463;52.378;9.688;2022-07-23T04:31:18;26.00;34.60
20610;DHT22;10463;52.378;9.688;2022-07-23T04:34:03;26.00;34.60
20610;DHT22;10463;52.378;9.688;2022-07-23T04:36:49;26.00;34.60
20610;DHT22;10463;52.378;9.688;2022-07-23T04:39:34;26.00;34.60
20610;DHT22;10463;52.378;9.688;2022-07-23T04:42:20;26.00;34.70
20610;DHT22;10463;52.378;9.688;2022-07-23T04:45:06;26.00;34.70
20610;DHT22;10463;52.378;9.688;2022-07-23T04:47:51;26.00;34.70
20610;DHT22;10463;52.378;9.688;2022-07-23T04:50:36;26.00;34.60
20610;DHT22;10463;52.378;9.688;2022-07-23T04:53:23;26.00;34.60
20610;DHT22;10463;52.378;9.688;2022-07-23T04:56:10;26.10;34.60
20610;DHT22;10463;52.378;9.688;2022-07-23T04:58:56;26.10;34.60
20610;DHT22;10463;52.378;9.688;2022-07-23T05:01:41;26.10;34.60
20610;DHT22;10463;52.378;9.688;2022-07-23T05:04:26;26.20;34.60
20610;DHT22;10463;52.378;9.688;2022-07-23T05:07:11;26.20;34.60
20610;DHT22;10463;52.378;9.688;2022-07-23T05:09:56;26.20;34.60
20610;DHT22;10463;52.378;9.688;2022-07-23T05:12:41;26.20;34.50
20610;DHT22;10463;52.378;9.688;2022-07-23T05:15:28;26.20;34.50
20610;DHT22;10463;52.378;9.688;2022-07-23T05:18:14;26.30;34.60
20610;DHT22;10463;52.378;9.688;2022-07-23T05:20:59;26.20;34.50
20610;DHT22;10463;52.378;9.688;2022-07-23T05:23:44;26.30;34.50
20610;DHT22;10463;52.378;9.688;2022-07-23T05:26:29;26.30;34.50
20610;DHT22;10463;52.378;9.688;2022-07-23T05:29:14;26.30;34.50
20610;DHT22;10463;52.378;9.688;2022-07-23T05:32:00;26.40;34.50
20610;DHT22;10463;52.378;9.688;2022-07-23T05:34:47;26.40;34.50
20610;DHT22;10463;52.378;9.688;2022-07-23T05:37:31;26.40;34.50
20610;DHT22;10463;52.378;9.688;2022-07-23T05:40:16;26.30;34.40
20610;DHT22;10463;52.378;9.688;2022-07-23T05:43:01;26.30;34.40
20610;DHT22;10463;52.378;9.688;2022-07-23T05:45:46;26.30;34.40
20610;DHT22;10463;52.378;9.688;2022-07-23T05:48:32;26.30;34.50
20610;DHT22;10463;52.378;9.688;2022-07-23T05:51:25;26.40;34.50
20610;DHT22;10463;52.378;9.688;2022-07-23T05:54:11;26.30;34.50
20610;DHT22;10463;52.378;9.688;2022-07-23T05:56:57;26.40;34.50
20610;DHT22;10463;52.378;9.688;2022-07-23T05:59:42;26.40;34.60
20610;DHT22;10463;52.378;9.688;2022-07-23T06:02:26;26.40;34.50
20610;DHT22;10463;52.378;9.688;2022-07-23T06:05:13;26.40;34.40
20610;DHT22;10463;52.378;9.688;2022-07-23T06:07:58;26.30;34.30
20610;DHT22;10463;52.378;9.688;2022-07-23T06:10:44;26.30;34.40
20610;DHT22;10463;52.378;9.688;2022-07-23T06:13:29;26.30;34.40
20610;DHT22;10463;52.378;9.688;2022-07-23T06:16:14;26.30;34.50
20610;DHT22;10463;52.378;9.688;2022-07-23T06:18:58;26.30;34.50
20610;DHT22;10463;52.378;9.688;2022-07-23T06:21:47;26.30;34.50
20610;DHT22;10463;52.378;9.688;2022-07-23T06:24:32;26.40;34.60
20610;DHT22;10463;52.378;9.688;2022-07-23T06:27:17;26.40;34.60
20610;DHT22;10463;52.378;9.688;2022-07-23T06:30:01;26.40;34.60
20610;DHT22;10463;52.378;9.688;2022-07-23T06:32:47;26.40;34.60
20610;DHT22;10463;52.378;9.688;2022-07-23T06:35:33;26.50;34.70
20610;DHT22;10463;52.378;9.688;2022-07-23T06:38:19;26.50;34.70
20610;DHT22;10463;52.378;9.688;2022-07-23T06:41:04;26.50;34.70
20610;DHT22;10463;52.378;9.688;2022-07-23T06:43:49;26.50;35.40
20610;DHT22;10463;52.378;9.688;2022-07-23T06:46:35;26.50;34.70
20610;DHT22;10463;52.378;9.688;2022-07-23T06:49:20;26.60;34.70
20610;DHT22;10463;52.378;9.688;2022-07-23T06:52:05;26.60;34.60
20610;DHT22;10463;52.378;9.688;2022-07-23T06:54:53;26.70;34.70
20610;DHT22;10463;52.378;9.688;2022-07-23T06:57:38;26.70;34.60
20610;DHT22;10463;52.378;9.688;2022-07-23T07:00:24;26.70;34.50
20610;DHT22;10463;52.378;9.688;2022-07-23T07:03:10;26.70;34.50
20610;DHT22;10463;52.378;9.688;2022-07-23T07:05:55;26.70;34.40
20610;DHT22;10463;52.378;9.688;2022-07-23T07:08:41;26.80;34.50
20610;DHT22;10463;52.378;9.688;2022-07-23T07:11:29;26.80;34.50
20610;DHT22;10463;52.378;9.688;2022-07-23T07:14:14;26.80;34.50
20610;DHT22;10463;52.378;9.688;2022-07-23T07:16:59;26.80;34.40
20610;DHT22;10463;52.378;9.688;2022-07-23T07:19:43;26.80;34.20
20610;DHT22;10463;52.378;9.688;2022-07-23T07:22:28;26.80;34.10
20610;DHT22;10463;52.378;9.688;2022-07-23T07:25:13;26.80;34.00
20610;DHT22;10463;52.378;9.688;2022-07-23T07:27:59;26.80;34.00
20610;DHT22;10463;52.378;9.688;2022-07-23T07:30:44;26.80;33.80
20610;DHT22;10463;52.378;9.688;2022-07-23T07:33:28;26.80;33.70
20610;DHT22;10463;52.378;9.688;2022-07-23T07:36:13;26.80;33.50
20610;DHT22;10463;52.378;9.688;2022-07-23T07:38:58;26.80;33.40
20610;DHT22;10463;52.378;9.688;2022-07-23T07:41:42;26.80;33.20
20610;DHT22;10463;52.378;9.688;2022-07-23T07:44:28;26.70;33.00
20610;DHT22;10463;52.378;9.688;2022-07-23T07:47:13;26.70;33.10
20610;DHT22;10463;52.378;9.688;2022-07-23T07:50:00;26.70;33.20
20610;DHT22;10463;52.378;9.688;2022-07-23T07:52:45;26.70;33.30
20610;DHT22;10463;52.378;9.688;2022-07-23T07:55:30;26.70;33.20
20610;DHT22;10463;52.378;9.688;2022-07-23T07:58:15;26.70;33.20
20610;DHT22;10463;52.378;9.688;2022-07-23T08:01:01;26.70;33.20
20610;DHT22;10463;52.378;9.688;2022-07-23T08:03:47;26.70;33.20
20610;DHT22;10463;52.378;9.688;2022-07-23T08:06:32;26.70;33.20
20610;DHT22;10463;52.378;9.688;2022-07-23T08:09:16;26.70;33.20
20610;DHT22;10463;52.378;9.688;2022-07-23T08:12:01;26.70;33.20
20610;DHT22;10463;52.378;9.688;2022-07-23T08:14:45;26.80;33.20
20610;DHT22;10463;52.378;9.688;2022-07-23T08:17:32;26.80;33.10
20610;DHT22;10463;52.378;9.688;2022-07-23T08:20:19;26.80;33.10
20610;DHT22;10463;52.378;9.688;2022-07-23T08:23:06;26.80;33.00
20610;DHT22;10463;52.378;9.688;2022-07-23T08:25:51;26.80;33.00
20610;DHT22;10463;52.378;9.688;2022-07-23T08:28:36;26.80;33.00
20610;DHT22;10463;52.378;9.688;2022-07-23T08:31:21;26.80;33.00
20610;DHT22;10463;52.378;9.688;2022-07-23T08:34:07;26.90;33.00
20610;DHT22;10463;52.378;9.688;2022-07-23T08:36:51;26.90;33.00
20610;DHT22;10463;52.378;9.688;2022-07-23T08:39:36;26.90;33.60
20610;DHT22;10463;52.378;9.688;2022-07-23T08:42:21;26.90;32.80
20610;DHT22;10463;52.378;9.688;2022-07-23T08:45:08;26.90;32.70
20610;DHT22;10463;52.378;9.688;2022-07-23T08:47:55;27.00;32.60
20610;DHT22;10463;52.378;9.688;2022-07-23T08:50:45;27.00;32.20
20610;DHT22;10463;52.378;9.688;2022-07-23T08:53:33;26.90;31.90
20610;DHT22;10463;52.378;9.688;2022-07-23T08:56:19;26.90;31.80
20610;DHT22;10463;52.378;9.688;2022-07-23T08:59:04;26.90;31.70
20610;DHT22;10463;52.378;9.688;2022-07-23T09:01:49;26.90;31.30
20610;DHT22;10463;52.378;9.688;2022-07-23T09:04:34;26.90;31.30
20610;DHT22;10463;52.378;9.688;2022-07-23T09:07:20;26.90;31.30
20610;DHT22;10463;52.378;9.688;2022-07-23T09:10:08;26.90;30.70
20610;DHT22;10463;52.378;9.688;2022-07-23T09:12:54;26.90;30.80
20610;DHT22;10463;52.378;9.688;2022-07-23T09:15:49;26.80;31.00
20610;DHT22;10463;52.378;9.688;2022-07-23T09:18:41;26.80;31.20
20610;DHT22;10463;52.378;9.688;2022-07-23T09:21:29;26.80;31.30
20610;DHT22;10463;52.378;9.688;2022-07-23T09:24:16;26.80;31.20
20610;DHT22;10463;52.378;9.688;2022-07-23T09:27:02;26.80;31.10
20610;DHT22;10463;52.378;9.688;2022-07-23T09:29:56;26.80;31.20
20610;DHT22;10463;52.378;9.688;2022-07-23T09:32:41;26.80;31.10
20610;DHT22;10463;52.378;9.688;2022-07-23T09:35:44;26.70;31.20
20610;DHT22;10463;52.378;9.688;2022-07-23T09:38:29;26.70;30.70
20610;DHT22;10463;52.378;9.688;2022-07-23T09:41:16;26.70;30.90
20610;DHT22;10463;52.378;9.688;2022-07-23T09:44:08;26.70;31.20
20610;DHT22;10463;52.378;9.688;2022-07-23T09:46:59;26.60;31.10
20610;DHT22;10463;52.378;9.688;2022-07-23T09:49:59;26.70;31.20
20610;DHT22;10463;52.378;9.688;2022-07-23T09:52:47;26.70;31.20
20610;DHT22;10463;52.378;9.688;2022-07-23T09:55:34;26.70;31.20
20610;DHT22;10463;52.378;9.688;2022-07-23T09:58:25;26.70;31.20
20610;DHT22;10463;52.378;9.688;2022-07-23T10:01:13;26.70;31.20
20610;DHT22;10463;52.378;9.688;2022-07-23T10:03:59;26.70;31.20
20610;DHT22;10463;52.378;9.688;2022-07-23T10:07:07;26.70;31.20
20610;DHT22;10463;52.378;9.688;2022-07-23T10:10:12;26.70;31.80
20610;DHT22;10463;52.378;9.688;2022-07-23T10:13:20;26.70;30.80
20610;DHT22;10463;52.378;9.688;2022-07-23T10:16:30;26.70;30.60
20610;DHT22;10463;52.378;9.688;2022-07-23T10:19:16;26.70;30.40
20610;DHT22;10463;52.378;9.688;2022-07-23T10:22:03;26.70;30.30
20610;DHT22;10463;52.378;9.688;2022-07-23T10:25:11;26.70;30.40
20610;DHT22;10463;52.378;9.688;2022-07-23T10:28:11;26.70;30.40
20610;DHT22;10463;52.378;9.688;2022-07-23T10:31:07;26.70;30.40
20610;DHT22;10463;52.378;9.688;2022-07-23T10:34:06;26.70;30.30
20610;DHT22;10463;52.378;9.688;2022-07-23T10:36:59;26.70;30.10
20610;DHT22;10463;52.378;9.688;2022-07-23T10:39:45;26.70;30.00
20610;DHT22;10463;52.378;9.688;2022-07-23T10:42:34;26.80;30.00
20610;DHT22;10463;52.378;9.688;2022-07-23T10:45:26;26.80;29.90
20610;DHT22;10463;52.378;9.688;2022-07-23T10:48:16;26.80;30.00
20610;DHT22;10463;52.378;9.688;2022-07-23T10:51:11;26.80;30.00
20610;DHT22;10463;52.378;9.688;2022-07-23T10:53:58;26.80;30.10
20610;DHT22;10463;52.378;9.688;2022-07-23T10:57:07;26.80;30.20
20610;DHT22;10463;52.378;9.688;2022-07-23T11:00:19;26.80;30.10
20610;DHT22;10463;52.378;9.688;2022-07-23T11:03:30;26.80;30.10
20610;DHT22;10463;52.378;9.688;2022-07-23T11:06:18;26.80;30.00
20610;DHT22;10463;52.378;9.688;2022-07-23T11:09:24;26.80;29.80
20610;DHT22;10463;52.378;9.688;2022-07-23T11:12:37;26.80;29.80
20610;DHT22;10463;52.378;9.688;2022-07-23T11:15:22;26.90;29.40
20610;DHT22;10463;52.378;9.688;2022-07-23T11:18:07;26.90;29.50
20610;DHT22;10463;52.378;9.688;2022-07-23T11:20:51;26.90;29.60
20610;DHT22;10463;52.378;9.688;2022-07-23T11:24:00;26.90;29.70
20610;DHT22;10463;52.378;9.688;2022-07-23T11:26:55;26.90;29.80
20610;DHT22;10463;52.378;9.688;2022-07-23T11:29:48;27.00;29.80
20610;DHT22;10463;52.378;9.688;2022-07-23T11:32:39;27.00;29.20
20610;DHT22;10463;52.378;9.688;2022-07-23T11:35:26;27.00;29.20
20610;DHT22;10463;52.378;9.688;2022-07-23T11:38:14;27.10;29.30
20610;DHT22;10463;52.378;9.688;2022-07-23T11:41:01;27.00;29.30
20610;DHT22;10463;52.378;9.688;2022-07-23T11:43:46;27.10;29.40
20610;DHT22;10463;52.378;9.688;2022-07-23T11:46:30;27.10;29.40
20610;DHT22;10463;52.378;9.688;2022-07-23T11:49:15;27.10;29.50
20610;DHT22;10463;52.378;9.688;2022-07-23T11:52:05;27.10;29.50
20610;DHT22;10463;52.378;9.688;2022-07-23T11:54:52;27.20;29.30
20610;DHT22;10463;52.378;9.688;2022-07-23T11:57:40;27.20;29.20
20610;DHT22;10463;52.378;9.688;2022-07-23T12:00:28;27.20;29.20
20610;DHT22;10463;52.378;9.688;2022-07-23T12:03:13;27.20;29.20
20610;DHT22;10463;52.378;9.688;2022-07-23T12:05:59;27.20;29.30
20610;DHT22;10463;52.378;9.688;2022-07-23T12:08:44;27.20;29.30
20610;DHT22;10463;52.378;9.688;2022-07-23T12:11:29;27.30;29.40
20610;DHT22;10463;52.378;9.688;2022-07-23T12:14:15;27.30;29.40
20610;DHT22;10463;52.378;9.688;2022-07-23T12:17:10;27.30;29.20
20610;DHT22;10463;52.378;9.688;2022-07-23T12:19:55;27.40;29.40
20610;DHT22;10463;52.378;9.688;2022-07-23T12:22:43;27.40;29.20
20610;DHT22;10463;52.378;9.688;2022-07-23T12:25:30;27.40;29.30
20610;DHT22;10463;52.378;9.688;2022-07-23T12:28:17;27.40;29.30
20610;DHT22;10463;52.378;9.688;2022-07-23T12:31:04;27.50;29.30
20610;DHT22;10463;52.378;9.688;2022-07-23T12:33:49;27.50;29.20
20610;DHT22;10463;52.378;9.688;2022-07-23T12:36:39;27.50;29.20
20610;DHT22;10463;52.378;9.688;2022-07-23T12:39:30;27.60;29.10
20610;DHT22;10463;52.378;9.688;2022-07-23T12:42:16;27.60;29.00
20610;DHT22;10463;52.378;9.688;2022-07-23T12:45:09;27.60;29.00
20610;DHT22;10463;52.378;9.688;2022-07-23T12:48:01;27.60;28.90
20610;DHT22;10463;52.378;9.688;2022-07-23T12:50:54;27.70;29.10
20610;DHT22;10463;52.378;9.688;2022-07-23T12:53:42;27.70;28.80
20610;DHT22;10463;52.378;9.688;2022-07-23T12:56:31;27.70;28.80
20610;DHT22;10463;52.378;9.688;2022-07-23T12:59:16;27.70;28.80
20610;DHT22;10463;52.378;9.688;2022-07-23T13:02:01;27.70;28.80
20610;DHT22;10463;52.378;9.688;2022-07-23T13:04:47;27.80;28.80
20610;DHT22;10463;52.378;9.688;2022-07-23T13:07:32;27.80;28.80
20610;DHT22;10463;52.378;9.688;2022-07-23T13:10:17;27.80;28.80
20610;DHT22;10463;52.378;9.688;2022-07-23T13:13:02;27.90;28.90
20610;DHT22;10463;52.378;9.688;2022-07-23T13:15:47;27.90;28.70
20610;DHT22;10463;52.378;9.688;2022-07-23T13:18:32;27.90;28.60
20610;DHT22;10463;52.378;9.688;2022-07-23T13:21:18;27.90;28.40
20610;DHT22;10463;52.378;9.688;2022-07-23T13:24:04;28.00;28.50
20610;DHT22;10463;52.378;9.688;2022-07-23T13:26:49;28.00;28.50
20610;DHT22;10463;52.378;9.688;2022-07-23T13:29:35;28.00;28.40
20610;DHT22;10463;52.378;9.688;2022-07-23T13:32:20;28.10;28.20
20610;DHT22;10463;52.378;9.688;2022-07-23T13:35:05;28.10;28.10
20610;DHT22;10463;52.378;9.688;2022-07-23T13:37:51;28.10;27.70
20610;DHT22;10463;52.378;9.688;2022-07-23T13:40:39;28.10;27.60
20610;DHT22;10463;52.378;9.688;2022-07-23T13:43:26;28.10;27.80
20610;DHT22;10463;52.378;9.688;2022-07-23T13:46:11;28.10;27.70
20610;DHT22;10463;52.378;9.688;2022-07-23T13:48:55;28.10;27.70
20610;DHT22;10463;52.378;9.688;2022-07-23T13:51:40;28.10;27.70
20610;DHT22;10463;52.378;9.688;2022-07-23T13:54:26;28.20;27.90
20610;DHT22;10463;52.378;9.688;2022-07-23T13:57:11;28.20;28.00
20610;DHT22;10463;52.378;9.688;2022-07-23T13:59:56;28.20;28.00
20610;DHT22;10463;52.378;9.688;2022-07-23T14:02:41;28.20;27.80
20610;DHT22;10463;52.378;9.688;2022-07-23T14:05:27;28.30;27.80
20610;DHT22;10463;52.378;9.688;2022-07-23T14:08:12;28.30;27.70
20610;DHT22;10463;52.378;9.688;2022-07-23T14:10:58;28.30;27.70
20610;DHT22;10463;52.378;9.688;2022-07-23T14:13:43;28.30;27.70
20610;DHT22;10463;52.378;9.688;2022-07-23T14:16:27;28.30;27.40
20610;DHT22;10463;52.378;9.688;2022-07-23T14:19:12;28.30;27.00
20610;DHT22;10463;52.378;9.688;2022-07-23T14:21:57;28.30;27.10
20610;DHT22;10463;52.378;9.688;2022-07-23T14:24:41;28.40;27.10
20610;DHT22;10463;52.378;9.688;2022-07-23T14:27:28;28.40;27.10
20610;DHT22;10463;52.378;9.688;2022-07-23T14:30:13;28.40;27.30
20610;DHT22;10463;52.378;9.688;2022-07-23T14:32:59;28.40;27.30
20610;DHT22;10463;52.378;9.688;2022-07-23T14:35:43;28.40;27.20
20610;DHT22;10463;52.378;9.688;2022-07-23T14:38:28;28.40;27.20
20610;DHT22;10463;52.378;9.688;2022-07-23T14:41:15;28.40;27.20
20610;DHT22;10463;52.378;9.688;2022-07-23T14:44:01;28.40;27.20
20610;DHT22;10463;52.378;9.688;2022-07-23T14:46:46;28.50;27.40
20610;DHT22;10463;52.378;9.688;2022-07-23T14:49:31;28.50;27.40
20610;DHT22;10463;52.378;9.688;2022-07-23T14:52:16;28.50;27.30
20610;DHT22;10463;52.378;9.688;2022-07-23T14:55:02;28.50;27.20
20610;DHT22;10463;52.378;9.688;2022-07-23T14:57:46;28.60;27.10
20610;DHT22;10463;52.378;9.688;2022-07-23T15:00:33;28.60;27.10
20610;DHT22;10463;52.378;9.688;2022-07-23T15:03:18;28.60;27.10
20610;DHT22;10463;52.378;9.688;2022-07-23T15:06:04;28.60;27.00
20610;DHT22;10463;52.378;9.688;2022-07-23T15:08:49;28.60;27.00
20610;DHT22;10463;52.378;9.688;2022-07-23T15:11:34;28.70;26.80
20610;DHT22;10463;52.378;9.688;2022-07-23T15:14:21;28.70;26.70
20610;DHT22;10463;52.378;9.688;2022-07-23T15:17:08;28.70;26.80
20610;DHT22;10463;52.378;9.688;2022-07-23T15:19:53;28.70;26.80
20610;DHT22;10463;52.378;9.688;2022-07-23T15:22:38;28.70;26.80
20610;DHT22;10463;52.378;9.688;2022-07-23T15:25:23;28.70;26.80
20610;DHT22;10463;52.378;9.688;2022-07-23T15:28:07;28.70;26.70
20610;DHT22;10463;52.378;9.688;2022-07-23T15:30:52;28.80;26.70
20610;DHT22;10463;52.378;9.688;2022-07-23T15:33:38;28.80;26.70
20610;DHT22;10463;52.378;9.688;2022-07-23T15:36:24;28.80;26.60
20610;DHT22;10463;52.378;9.688;2022-07-23T15:39:09;28.80;26.50
20610;DHT22;10463;52.378;9.688;2022-07-23T15:41:54;28.80;26.50
20610;DHT22;10463;52.378;9.688;2022-07-23T15:44:38;28.80;26.40
20610;DHT22;10463;52.378;9.688;2022-07-23T15:47:23;28.80;26.40
20610;DHT22;10463;52.378;9.688;2022-07-23T15:50:10;28.80;26.40
20610;DHT22;10463;52.378;9.688;2022-07-23T15:52:55;28.90;26.50
20610;DHT22;10463;52.378;9.688;2022-07-23T15:55:40;28.90;26.50
20610;DHT22;10463;52.378;9.688;2022-07-23T15:58:27;28.90;26.50
20610;DHT22;10463;52.378;9.688;2022-07-23T16:01:13;28.90;26.50
20610;DHT22;10463;52.378;9.688;2022-07-23T16:03:58;28.90;26.40
20610;DHT22;10463;52.378;9.688;2022-07-23T16:06:45;28.90;26.30
20610;DHT22;10463;52.378;9.688;2022-07-23T16:09:29;28.90;26.40
20610;DHT22;10463;52.378;9.688;2022-07-23T16:12:14;28.90;26.40
20610;DHT22;10463;52.378;9.688;2022-07-23T16:14:59;28.90;26.20
20610;DHT22;10463;52.378;9.688;2022-07-23T16:17:44;28.90;26.20
20610;DHT22;10463;52.378;9.688;2022-07-23T16:20:29;28.90;26.10
20610;DHT22;10463;52.378;9.688;2022-07-23T16:23:15;28.90;26.20
20610;DHT22;10463;52.378;9.688;2022-07-23T16:26:00;28.90;26.20
20610;DHT22;10463;52.378;9.688;2022-07-23T16:28:45;28.90;26.10
20610;DHT22;10463;52.378;9.688;2022-07-23T16:31:31;28.90;26.00
20610;DHT22;10463;52.378;9.688;2022-07-23T16:34:16;28.90;26.00
20610;DHT22;10463;52.378;9.688;2022-07-23T16:37:02;28.90;25.90
20610;DHT22;10463;52.378;9.688;2022-07-23T16:39:48;29.00;25.80
20610;DHT22;10463;52.378;9.688;2022-07-23T16:42:33;29.00;25.80
20610;DHT22;10463;52.378;9.688;2022-07-23T16:45:18;29.00;25.90
20610;DHT22;10463;52.378;9.688;2022-07-23T16:48:03;29.00;25.90
20610;DHT22;10463;52.378;9.688;2022-07-23T16:50:48;29.00;25.90
20610;DHT22;10463;52.378;9.688;2022-07-23T16:53:33;29.00;26.00
20610;DHT22;10463;52.378;9.688;2022-07-23T16:56:19;29.00;26.00
20610;DHT22;10463;52.378;9.688;2022-07-23T16:59:04;29.00;25.90
20610;DHT22;10463;52.378;9.688;2022-07-23T17:01:49;29.00;26.00
20610;DHT22;10463;52.378;9.688;2022-07-23T17:04:34;29.00;25.90
20610;DHT22;10463;52.378;9.688;2022-07-23T17:07:19;29.00;25.80
20610;DHT22;10463;52.378;9.688;2022-07-23T17:10:06;29.00;25.90
20610;DHT22;10463;52.378;9.688;2022-07-23T17:12:53;29.00;25.90
20610;DHT22;10463;52.378;9.688;2022-07-23T17:15:38;29.00;25.80
20610;DHT22;10463;52.378;9.688;2022-07-23T17:18:23;28.90;25.70
20610;DHT22;10463;52.378;9.688;2022-07-23T17:21:08;28.90;25.50
20610;DHT22;10463;52.378;9.688;2022-07-23T17:23:53;28.90;25.50
20610;DHT22;10463;52.378;9.688;2022-07-23T17:26:38;28.90;25.50
20610;DHT22;10463;52.378;9.688;2022-07-23T17:29:25;28.90;25.60
20610;DHT22;10463;52.378;9.688;2022-07-23T17:32:10;28.90;25.70
20610;DHT22;10463;52.378;9.688;2022-07-23T17:34:55;28.90;25.70